sensor_id;sensor_type;location;lat;lon;timestamp;pressure;altitude;pressure_sealevel;temperature;humidity
63663;BME280;49815;51.618;0.336;2023-02-18T00:00:13;101467.65;;;11.98;54.58
63663;BME280;49815;51.618;0.336;2023-02-18T00:02:33;101461.57;;;11.98;54.30
63663;BME280;49815;51.618;0.336;2023-02-18T00:04:58;101464.94;;;12.66;53.54
63663;BME280;49815;51.618;0.336;2023-02-18T00:07:24;101469.86;;;12.82;53.65
63663;BME280;49815;51.618;0.336;2023-02-18T00:09:49;101455.69;;;12.37;54.38
63663;BME280;49815;51.618;0.336;2023-02-18T00:12:15;101465.42;;;12.24;54.66
63663;BME280;49815;51.618;0.336;2023-02-18T00:14:40;101458.49;;;12.37;54.34
63663;BME280;49815;51.618;0.336;2023-02-18T00:17:06;101455.68;;;11.78;55.43
63663;BME280;49815;51.618;0.336;2023-02-18T00:19:31;101455.38;;;12.17;54.62
63663;BME280;49815;51.618;0.336;2023-02-18T00:21:57;101451.83;;;11.82;55.20
63663;BME280;49815;51.618;0.336;2023-02-18T00:24:22;101450.85;;;11.92;55.44
63663;BME280;49815;51.618;0.336;2023-02-18T00:26:50;101446.81;;;12.07;55.66
63663;BME280;49815;51.618;0.336;2023-02-18T00:29:13;101445.43;;;11.68;56.00
63663;BME280;49815;51.618;0.336;2023-02-18T00:31:39;101450.68;;;11.66;55.40
63663;BME280;49815;51.618;0.336;2023-02-18T00:34:05;101446.02;;;12.20;54.72
63663;BME280;49815;51.618;0.336;2023-02-18T00:36:30;101451.65;;;12.30;53.93
63663;BME280;49815;51.618;0.336;2023-02-18T00:38:58;101450.54;;;12.00;54.20
63663;BME280;49815;51.618;0.336;2023-02-18T00:41:23;101454.98;;;12.33;53.61
63663;BME280;49815;51.618;0.336;2023-02-18T00:43:46;101453.04;;;12.80;52.53
63663;BME280;49815;51.618;0.336;2023-02-18T00:46:12;101449.59;;;12.55;52.78
63663;BME280;49815;51.618;0.336;2023-02-18T00:48:37;101443.97;;;12.64;52.62
63663;BME280;49815;51.618;0.336;2023-02-18T00:51:04;101449.03;;;12.55;52.81
63663;BME280;49815;51.618;0.336;2023-02-18T00:53:28;101443.75;;;12.63;52.43
63663;BME280;49815;51.618;0.336;2023-02-18T00:55:53;101431.26;;;12.54;52.44
63663;BME280;49815;51.618;0.336;2023-02-18T00:58:19;101426.05;;;11.94;53.26
63663;BME280;49815;51.618;0.336;2023-02-18T01:00:45;101429.06;;;12.50;52.28
63663;BME280;49815;51.618;0.336;2023-02-18T01:03:10;101421.08;;;12.03;52.91
63663;BME280;49815;51.618;0.336;2023-02-18T01:05:35;101415.88;;;12.43;52.28
63663;BME280;49815;51.618;0.336;2023-02-18T01:08:00;101416.84;;;12.19;53.01
63663;BME280;49815;51.618;0.336;2023-02-18T01:10:26;101417.66;;;12.52;52.51
63663;BME280;49815;51.618;0.336;2023-02-18T01:12:51;101424.92;;;12.12;52.83
63663;BME280;49815;51.618;0.336;2023-02-18T01:15:17;101419.99;;;12.67;51.96
63663;BME280;49815;51.618;0.336;2023-02-18T01:17:42;101420.03;;;12.62;52.33
63663;BME280;49815;51.618;0.336;2023-02-18T01:20:08;101417.79;;;12.45;52.28
63663;BME280;49815;51.618;0.336;2023-02-18T01:22:32;101417.12;;;12.88;51.56
63663;BME280;49815;51.618;0.336;2023-02-18T01:24:58;101416.72;;;12.88;51.50
63663;BME280;49815;51.618;0.336;2023-02-18T01:27:23;101412.35;;;12.36;51.71
63663;BME280;49815;51.618;0.336;2023-02-18T01:29:48;101416.29;;;12.87;51.72
63663;BME280;49815;51.618;0.336;2023-02-18T01:32:14;101411.59;;;12.53;52.55
63663;BME280;49815;51.618;0.336;2023-02-18T01:34:39;101404.29;;;11.91;52.89
63663;BME280;49815;51.618;0.336;2023-02-18T01:37:05;101408.63;;;12.37;52.98
63663;BME280;49815;51.618;0.336;2023-02-18T01:39:30;101404.96;;;12.24;52.81
63663;BME280;49815;51.618;0.336;2023-02-18T01:41:55;101407.60;;;12.04;52.76
63663;BME280;49815;51.618;0.336;2023-02-18T01:44:23;101402.96;;;11.96;53.72
63663;BME280;49815;51.618;0.336;2023-02-18T01:46:46;101402.05;;;12.05;53.66
63663;BME280;49815;51.618;0.336;2023-02-18T01:49:14;101396.21;;;12.08;53.76
63663;BME280;49815;51.618;0.336;2023-02-18T01:51:39;101390.55;;;11.75;54.75
63663;BME280;49815;51.618;0.336;2023-02-18T01:54:05;101396.22;;;12.25;54.09
63663;BME280;49815;51.618;0.336;2023-02-18T01:56:31;101399.90;;;12.13;53.60
63663;BME280;49815;51.618;0.336;2023-02-18T01:58:54;101399.31;;;11.70;53.47
63663;BME280;49815;51.618;0.336;2023-02-18T02:01:18;101391.39;;;11.74;53.88
63663;BME280;49815;51.618;0.336;2023-02-18T02:03:44;101401.28;;;11.66;54.17
63663;BME280;49815;51.618;0.336;2023-02-18T02:06:14;101396.14;;;12.15;53.20
63663;BME280;49815;51.618;0.336;2023-02-18T02:08:34;101389.07;;;12.25;53.09
63663;BME280;49815;51.618;0.336;2023-02-18T02:11:08;101393.11;;;12.15;52.78
63663;BME280;49815;51.618;0.336;2023-02-18T02:13:32;101382.91;;;12.03;52.87
63663;BME280;49815;51.618;0.336;2023-02-18T02:15:54;101379.31;;;11.80;53.77
63663;BME280;49815;51.618;0.336;2023-02-18T02:18:24;101380.85;;;12.00;53.95
63663;BME280;49815;51.618;0.336;2023-02-18T02:21:01;101388.29;;;11.26;55.31
63663;BME280;49815;51.618;0.336;2023-02-18T02:23:26;101376.85;;;11.05;55.59
63663;BME280;49815;51.618;0.336;2023-02-18T02:25:43;101361.84;;;11.64;54.54
63663;BME280;49815;51.618;0.336;2023-02-18T02:30:41;101367.97;;;11.78;53.00
63663;BME280;49815;51.618;0.336;2023-02-18T02:35:16;101335.98;;;11.50;53.12
63663;BME280;49815;51.618;0.336;2023-02-18T02:37:46;101328.59;;;12.05;52.62
63663;BME280;49815;51.618;0.336;2023-02-18T02:40:14;101340.50;;;11.63;52.92
63663;BME280;49815;51.618;0.336;2023-02-18T02:42:38;101334.93;;;11.32;54.91
63663;BME280;49815;51.618;0.336;2023-02-18T02:44:58;101339.25;;;11.58;53.96
63663;BME280;49815;51.618;0.336;2023-02-18T02:47:26;101342.31;;;11.39;53.72
63663;BME280;49815;51.618;0.336;2023-02-18T02:49:51;101329.09;;;11.22;54.19
63663;BME280;49815;51.618;0.336;2023-02-18T02:52:14;101348.00;;;11.07;54.59
63663;BME280;49815;51.618;0.336;2023-02-18T02:54:36;101347.92;;;11.30;54.08
63663;BME280;49815;51.618;0.336;2023-02-18T02:57:07;101351.87;;;10.83;55.41
63663;BME280;49815;51.618;0.336;2023-02-18T02:59:28;101363.69;;;11.09;55.36
63663;BME280;49815;51.618;0.336;2023-02-18T03:02:03;101352.06;;;10.77;54.73
63663;BME280;49815;51.618;0.336;2023-02-18T03:04:27;101341.24;;;10.72;53.78
63663;BME280;49815;51.618;0.336;2023-02-18T03:06:58;101324.89;;;10.83;53.21
63663;BME280;49815;51.618;0.336;2023-02-18T03:09:12;101322.33;;;10.95;52.57
63663;BME280;49815;51.618;0.336;2023-02-18T03:11:40;101312.39;;;11.31;52.24
63663;BME280;49815;51.618;0.336;2023-02-18T03:14:06;101309.26;;;10.76;51.90
63663;BME280;49815;51.618;0.336;2023-02-18T03:16:30;101306.45;;;11.15;51.05
63663;BME280;49815;51.618;0.336;2023-02-18T03:18:57;101302.80;;;11.06;50.20
63663;BME280;49815;51.618;0.336;2023-02-18T03:21:21;101305.24;;;10.78;50.32
63663;BME280;49815;51.618;0.336;2023-02-18T03:23:45;101298.75;;;10.72;49.95
63663;BME280;49815;51.618;0.336;2023-02-18T03:26:07;101297.47;;;10.68;49.52
63663;BME280;49815;51.618;0.336;2023-02-18T03:28:32;101298.83;;;10.85;49.01
63663;BME280;49815;51.618;0.336;2023-02-18T03:31:00;101286.38;;;10.93;48.39
63663;BME280;49815;51.618;0.336;2023-02-18T03:33:26;101298.33;;;10.78;48.36
63663;BME280;49815;51.618;0.336;2023-02-18T03:35:49;101279.67;;;11.17;48.10
63663;BME280;49815;51.618;0.336;2023-02-18T03:38:17;101285.69;;;11.00;47.86
63663;BME280;49815;51.618;0.336;2023-02-18T03:40:39;101278.91;;;10.84;47.85
63663;BME280;49815;51.618;0.336;2023-02-18T03:43:04;101269.29;;;10.52;48.47
63663;BME280;49815;51.618;0.336;2023-02-18T03:45:30;101261.43;;;10.56;48.11
63663;BME280;49815;51.618;0.336;2023-02-18T03:47:55;101261.54;;;9.80;48.93
63663;BME280;49815;51.618;0.336;2023-02-18T03:50:20;101258.73;;;10.65;47.86
63663;BME280;49815;51.618;0.336;2023-02-18T03:52:46;101250.46;;;10.35;48.35
63663;BME280;49815;51.618;0.336;2023-02-18T03:55:11;101257.03;;;9.52;48.95
63663;BME280;49815;51.618;0.336;2023-02-18T03:57:37;101260.37;;;9.93;49.51
63663;BME280;49815;51.618;0.336;2023-02-18T04:00:04;101248.32;;;9.97;48.66
63663;BME280;49815;51.618;0.336;2023-02-18T04:02:28;101237.99;;;10.33;47.87
63663;BME280;49815;51.618;0.336;2023-02-18T04:04:53;101237.56;;;9.97;48.40
63663;BME280;49815;51.618;0.336;2023-02-18T04:07:19;101241.79;;;9.92;48.09
63663;BME280;49815;51.618;0.336;2023-02-18T04:09:44;101246.19;;;9.72;48.39
63663;BME280;49815;51.618;0.336;2023-02-18T04:12:10;101254.55;;;9.78;48.57
63663;BME280;49815;51.618;0.336;2023-02-18T04:14:36;101264.47;;;10.37;47.58
63663;BME280;49815;51.618;0.336;2023-02-18T04:17:01;101254.01;;;9.67;48.29
63663;BME280;49815;51.618;0.336;2023-02-18T04:19:27;101261.90;;;9.76;47.53
63663;BME280;49815;51.618;0.336;2023-02-18T04:21:52;101251.67;;;10.43;47.13
63663;BME280;49815;51.618;0.336;2023-02-18T04:24:18;101255.03;;;10.26;47.23
63663;BME280;49815;51.618;0.336;2023-02-18T04:26:43;101255.45;;;10.15;47.64
63663;BME280;49815;51.618;0.336;2023-02-18T04:29:09;101258.10;;;9.76;48.08
63663;BME280;49815;51.618;0.336;2023-02-18T04:31:35;101253.91;;;10.00;47.82
63663;BME280;49815;51.618;0.336;2023-02-18T04:34:00;101250.32;;;9.91;48.00
63663;BME280;49815;51.618;0.336;2023-02-18T04:36:25;101246.81;;;9.96;48.21
63663;BME280;49815;51.618;0.336;2023-02-18T04:38:50;101242.80;;;10.03;47.79
63663;BME280;49815;51.618;0.336;2023-02-18T04:41:16;101236.86;;;10.02;48.05
63663;BME280;49815;51.618;0.336;2023-02-18T04:43:42;101229.81;;;9.55;48.87
63663;BME280;49815;51.618;0.336;2023-02-18T04:46:07;101230.90;;;9.72;48.43
63663;BME280;49815;51.618;0.336;2023-02-18T04:48:33;101224.92;;;9.95;48.17
63663;BME280;49815;51.618;0.336;2023-02-18T04:50:58;101218.65;;;9.83;47.72
63663;BME280;49815;51.618;0.336;2023-02-18T04:53:23;101216.82;;;10.01;47.88
63663;BME280;49815;51.618;0.336;2023-02-18T04:55:49;101229.10;;;9.70;48.52
63663;BME280;49815;51.618;0.336;2023-02-18T04:58:14;101226.02;;;9.71;48.91
63663;BME280;49815;51.618;0.336;2023-02-18T05:00:40;101240.48;;;9.65;48.76
63663;BME280;49815;51.618;0.336;2023-02-18T05:03:05;101238.17;;;9.54;49.49
63663;BME280;49815;51.618;0.336;2023-02-18T05:05:31;101224.60;;;9.58;49.03
63663;BME280;49815;51.618;0.336;2023-02-18T05:07:57;101219.70;;;9.48;49.33
63663;BME280;49815;51.618;0.336;2023-02-18T05:10:22;101215.58;;;9.81;48.84
63663;BME280;49815;51.618;0.336;2023-02-18T05:12:47;101215.09;;;10.09;48.78
63663;BME280;49815;51.618;0.336;2023-02-18T05:15:12;101227.39;;;9.85;48.53
63663;BME280;49815;51.618;0.336;2023-02-18T05:17:38;101230.19;;;10.43;47.68
63663;BME280;49815;51.618;0.336;2023-02-18T05:20:04;101231.67;;;9.88;48.11
63663;BME280;49815;51.618;0.336;2023-02-18T05:22:29;101221.45;;;10.46;47.96
63663;BME280;49815;51.618;0.336;2023-02-18T05:24:55;101228.64;;;10.82;47.07
63663;BME280;49815;51.618;0.336;2023-02-18T05:27:20;101212.36;;;10.53;47.31
63663;BME280;49815;51.618;0.336;2023-02-18T05:29:45;101214.22;;;10.80;47.53
63663;BME280;49815;51.618;0.336;2023-02-18T05:32:11;101208.74;;;10.48;48.26
63663;BME280;49815;51.618;0.336;2023-02-18T05:34:37;101227.00;;;10.64;48.16
63663;BME280;49815;51.618;0.336;2023-02-18T05:37:02;101223.68;;;10.52;48.47
63663;BME280;49815;51.618;0.336;2023-02-18T05:39:28;101223.28;;;10.39;48.72
63663;BME280;49815;51.618;0.336;2023-02-18T05:41:53;101215.29;;;10.64;48.30
63663;BME280;49815;51.618;0.336;2023-02-18T05:44:18;101217.56;;;10.45;48.92
63663;BME280;49815;51.618;0.336;2023-02-18T05:46:44;101227.73;;;10.15;49.64
63663;BME280;49815;51.618;0.336;2023-02-18T05:49:09;101234.57;;;10.58;48.97
63663;BME280;49815;51.618;0.336;2023-02-18T05:51:35;101233.23;;;10.07;49.87
63663;BME280;49815;51.618;0.336;2023-02-18T05:54:00;101227.83;;;10.01;49.76
63663;BME280;49815;51.618;0.336;2023-02-18T05:56:26;101222.63;;;10.20;50.02
63663;BME280;49815;51.618;0.336;2023-02-18T05:58:51;101215.74;;;10.14;49.47
63663;BME280;49815;51.618;0.336;2023-02-18T06:01:16;101223.27;;;10.37;49.05
63663;BME280;49815;51.618;0.336;2023-02-18T06:03:41;101232.65;;;10.60;48.81
63663;BME280;49815;51.618;0.336;2023-02-18T06:06:08;101221.61;;;10.12;49.64
63663;BME280;49815;51.618;0.336;2023-02-18T06:08:33;101217.35;;;10.38;49.81
63663;BME280;49815;51.618;0.336;2023-02-18T06:10:58;101221.86;;;10.43;49.85
63663;BME280;49815;51.618;0.336;2023-02-18T06:13:24;101222.03;;;10.67;49.82
63663;BME280;49815;51.618;0.336;2023-02-18T06:15:50;101226.56;;;10.82;49.68
63663;BME280;49815;51.618;0.336;2023-02-18T06:18:14;101217.75;;;10.66;49.87
63663;BME280;49815;51.618;0.336;2023-02-18T06:20:40;101225.65;;;11.09;49.23
63663;BME280;49815;51.618;0.336;2023-02-18T06:23:05;101238.07;;;10.90;49.22
63663;BME280;49815;51.618;0.336;2023-02-18T06:25:30;101233.04;;;10.56;50.01
63663;BME280;49815;51.618;0.336;2023-02-18T06:27:56;101230.52;;;10.67;50.46
63663;BME280;49815;51.618;0.336;2023-02-18T06:30:21;101220.26;;;10.72;50.00
63663;BME280;49815;51.618;0.336;2023-02-18T06:32:47;101215.62;;;10.53;50.38
63663;BME280;49815;51.618;0.336;2023-02-18T06:35:12;101207.75;;;10.45;50.65
63663;BME280;49815;51.618;0.336;2023-02-18T06:37:38;101214.03;;;10.49;51.22
63663;BME280;49815;51.618;0.336;2023-02-18T06:40:04;101209.08;;;10.32;51.78
63663;BME280;49815;51.618;0.336;2023-02-18T06:42:28;101207.37;;;10.28;51.38
63663;BME280;49815;51.618;0.336;2023-02-18T06:44:53;101208.36;;;10.63;51.19
63663;BME280;49815;51.618;0.336;2023-02-18T06:47:19;101207.50;;;10.49;51.46
63663;BME280;49815;51.618;0.336;2023-02-18T06:49:44;101211.35;;;10.94;50.35
63663;BME280;49815;51.618;0.336;2023-02-18T06:52:09;101209.32;;;10.43;51.24
63663;BME280;49815;51.618;0.336;2023-02-18T06:54:35;101212.18;;;10.64;51.21
63663;BME280;49815;51.618;0.336;2023-02-18T06:57:00;101216.29;;;10.06;51.91
63663;BME280;49815;51.618;0.336;2023-02-18T06:59:26;101211.70;;;10.42;51.37
63663;BME280;49815;51.618;0.336;2023-02-18T07:01:51;101207.79;;;10.36;52.78
63663;BME280;49815;51.618;0.336;2023-02-18T07:04:17;101216.58;;;10.37;52.47
63663;BME280;49815;51.618;0.336;2023-02-18T07:06:42;101219.14;;;10.05;52.53
63663;BME280;49815;51.618;0.336;2023-02-18T07:09:07;101211.29;;;10.70;51.90
63663;BME280;49815;51.618;0.336;2023-02-18T07:11:33;101208.68;;;10.27;51.62
63663;BME280;49815;51.618;0.336;2023-02-18T07:13:58;101213.82;;;10.63;51.12
63663;BME280;49815;51.618;0.336;2023-02-18T07:16:24;101218.01;;;11.04;50.92
63663;BME280;49815;51.618;0.336;2023-02-18T07:18:49;101216.69;;;10.97;51.00
63663;BME280;49815;51.618;0.336;2023-02-18T07:21:15;101210.48;;;10.69;51.46
63663;BME280;49815;51.618;0.336;2023-02-18T07:23:40;101207.53;;;10.59;51.79
63663;BME280;49815;51.618;0.336;2023-02-18T07:26:08;101201.15;;;10.59;51.63
63663;BME280;49815;51.618;0.336;2023-02-18T07:28:32;101203.98;;;11.11;50.88
63663;BME280;49815;51.618;0.336;2023-02-18T07:30:57;101211.59;;;10.70;51.58
63663;BME280;49815;51.618;0.336;2023-02-18T07:33:22;101225.55;;;10.84;51.29
63663;BME280;49815;51.618;0.336;2023-02-18T07:35:52;101223.84;;;10.56;52.18
63663;BME280;49815;51.618;0.336;2023-02-18T07:38:13;101225.28;;;10.70;51.75
63663;BME280;49815;51.618;0.336;2023-02-18T07:40:39;101230.67;;;10.94;50.57
63663;BME280;49815;51.618;0.336;2023-02-18T07:43:04;101223.31;;;11.62;49.63
63663;BME280;49815;51.618;0.336;2023-02-18T07:45:30;101224.71;;;11.43;50.09
63663;BME280;49815;51.618;0.336;2023-02-18T07:47:55;101218.86;;;11.45;50.01
63663;BME280;49815;51.618;0.336;2023-02-18T07:50:20;101214.46;;;11.58;49.75
63663;BME280;49815;51.618;0.336;2023-02-18T07:52:46;101216.08;;;10.85;51.59
63663;BME280;49815;51.618;0.336;2023-02-18T07:55:11;101226.33;;;10.92;51.01
63663;BME280;49815;51.618;0.336;2023-02-18T07:57:36;101220.23;;;10.97;50.99
63663;BME280;49815;51.618;0.336;2023-02-18T08:00:03;101227.46;;;11.28;50.51
63663;BME280;49815;51.618;0.336;2023-02-18T08:02:27;101213.27;;;11.44;49.52
63663;BME280;49815;51.618;0.336;2023-02-18T08:04:53;101216.38;;;11.85;49.11
63663;BME280;49815;51.618;0.336;2023-02-18T08:07:20;101200.60;;;11.75;49.45
63663;BME280;49815;51.618;0.336;2023-02-18T08:09:44;101204.28;;;11.72;49.41
63663;BME280;49815;51.618;0.336;2023-02-18T08:12:09;101205.72;;;11.40;50.35
63663;BME280;49815;51.618;0.336;2023-02-18T08:14:34;101214.31;;;11.46;50.45
63663;BME280;49815;51.618;0.336;2023-02-18T08:16:59;101211.38;;;11.67;49.72
63663;BME280;49815;51.618;0.336;2023-02-18T08:19:25;101210.87;;;11.47;49.84
63663;BME280;49815;51.618;0.336;2023-02-18T08:21:50;101225.98;;;12.10;49.51
63663;BME280;49815;51.618;0.336;2023-02-18T08:24:16;101229.23;;;11.88;49.23
63663;BME280;49815;51.618;0.336;2023-02-18T08:26:41;101226.30;;;11.58;49.51
63663;BME280;49815;51.618;0.336;2023-02-18T08:29:06;101234.19;;;11.38;49.91
63663;BME280;49815;51.618;0.336;2023-02-18T08:31:32;101240.74;;;11.72;49.33
63663;BME280;49815;51.618;0.336;2023-02-18T08:33:58;101250.33;;;11.76;49.86
63663;BME280;49815;51.618;0.336;2023-02-18T08:36:23;101263.66;;;12.25;48.84
63663;BME280;49815;51.618;0.336;2023-02-18T08:38:48;101264.57;;;11.93;49.87
63663;BME280;49815;51.618;0.336;2023-02-18T08:41:14;101263.87;;;11.92;49.41
63663;BME280;49815;51.618;0.336;2023-02-18T08:43:39;101269.73;;;12.41;48.26
63663;BME280;49815;51.618;0.336;2023-02-18T08:46:04;101275.93;;;12.06;49.51
63663;BME280;49815;51.618;0.336;2023-02-18T08:48:30;101260.79;;;11.82;49.39
63663;BME280;49815;51.618;0.336;2023-02-18T08:50:55;101264.40;;;11.95;48.58
63663;BME280;49815;51.618;0.336;2023-02-18T08:53:20;101261.04;;;11.64;49.39
63663;BME280;49815;51.618;0.336;2023-02-18T08:55:45;101265.43;;;12.21;48.59
63663;BME280;49815;51.618;0.336;2023-02-18T08:58:11;101259.60;;;12.20;48.39
63663;BME280;49815;51.618;0.336;2023-02-18T09:00:37;101258.18;;;12.23;48.20
63663;BME280;49815;51.618;0.336;2023-02-18T09:03:02;101263.67;;;12.69;47.92
63663;BME280;49815;51.618;0.336;2023-02-18T09:05:27;101258.60;;;12.64;47.70
63663;BME280;49815;51.618;0.336;2023-02-18T09:07:52;101267.65;;;12.51;47.45
63663;BME280;49815;51.618;0.336;2023-02-18T09:10:17;101278.24;;;12.55;47.24
63663;BME280;49815;51.618;0.336;2023-02-18T09:12:43;101278.82;;;12.70;47.65
63663;BME280;49815;51.618;0.336;2023-02-18T09:15:08;101292.06;;;12.47;48.11
63663;BME280;49815;51.618;0.336;2023-02-18T09:17:34;101296.13;;;12.98;47.39
63663;BME280;49815;51.618;0.336;2023-02-18T09:19:59;101294.22;;;12.62;47.21
63663;BME280;49815;51.618;0.336;2023-02-18T09:22:24;101296.32;;;13.29;46.96
63663;BME280;49815;51.618;0.336;2023-02-18T09:24:49;101308.05;;;13.06;47.25
63663;BME280;49815;51.618;0.336;2023-02-18T09:27:14;101313.64;;;12.63;48.12
63663;BME280;49815;51.618;0.336;2023-02-18T09:29:40;101315.42;;;12.38;48.67
63663;BME280;49815;51.618;0.336;2023-02-18T09:32:06;101312.00;;;12.88;48.18
63663;BME280;49815;51.618;0.336;2023-02-18T09:34:30;101299.78;;;12.40;48.64
63663;BME280;49815;51.618;0.336;2023-02-18T09:36:56;101295.22;;;13.14;46.85
63663;BME280;49815;51.618;0.336;2023-02-18T09:39:21;101296.38;;;13.51;46.38
63663;BME280;49815;51.618;0.336;2023-02-18T09:41:47;101300.18;;;13.63;46.88
63663;BME280;49815;51.618;0.336;2023-02-18T09:44:15;101307.64;;;12.96;47.66
63663;BME280;49815;51.618;0.336;2023-02-18T09:46:41;101321.44;;;13.45;47.29
63663;BME280;49815;51.618;0.336;2023-02-18T09:49:05;101335.52;;;12.95;47.22
63663;BME280;49815;51.618;0.336;2023-02-18T09:51:28;101335.72;;;11.81;50.81
63663;BME280;49815;51.618;0.336;2023-02-18T09:53:54;101337.73;;;12.41;49.19
63663;BME280;49815;51.618;0.336;2023-02-18T09:56:22;101338.06;;;12.22;50.33
63663;BME280;49815;51.618;0.336;2023-02-18T09:58:46;101341.38;;;12.21;49.72
63663;BME280;49815;51.618;0.336;2023-02-18T10:01:14;101341.13;;;12.23;49.49
63663;BME280;49815;51.618;0.336;2023-02-18T10:03:35;101333.18;;;12.24;49.57
63663;BME280;49815;51.618;0.336;2023-02-18T10:06:03;101337.59;;;12.70;48.78
63663;BME280;49815;51.618;0.336;2023-02-18T10:08:27;101346.31;;;12.69;49.12
63663;BME280;49815;51.618;0.336;2023-02-18T10:10:51;101339.55;;;12.54;48.81
63663;BME280;49815;51.618;0.336;2023-02-18T10:13:18;101331.33;;;12.89;47.89
63663;BME280;49815;51.618;0.336;2023-02-18T10:15:42;101336.37;;;13.47;47.00
63663;BME280;49815;51.618;0.336;2023-02-18T10:18:17;101335.57;;;12.93;48.33
63663;BME280;49815;51.618;0.336;2023-02-18T10:20:33;101336.49;;;12.61;49.25
63663;BME280;49815;51.618;0.336;2023-02-18T10:23:00;101343.99;;;12.20;49.85
63663;BME280;49815;51.618;0.336;2023-02-18T10:25:24;101340.71;;;12.89;49.43
63663;BME280;49815;51.618;0.336;2023-02-18T10:27:49;101334.12;;;13.21;47.98
63663;BME280;49815;51.618;0.336;2023-02-18T10:30:21;101339.32;;;13.46;46.68
63663;BME280;49815;51.618;0.336;2023-02-18T10:32:42;101344.10;;;12.83;48.63
63663;BME280;49815;51.618;0.336;2023-02-18T10:35:13;101339.19;;;14.05;46.30
63663;BME280;49815;51.618;0.336;2023-02-18T10:37:42;101337.19;;;13.83;46.06
63663;BME280;49815;51.618;0.336;2023-02-18T10:40:06;101337.84;;;13.96;46.28
63663;BME280;49815;51.618;0.336;2023-02-18T10:42:28;101334.87;;;13.42;47.08
63663;BME280;49815;51.618;0.336;2023-02-18T10:44:59;101346.22;;;13.48;46.85
63663;BME280;49815;51.618;0.336;2023-02-18T10:47:19;101337.97;;;14.10;46.13
63663;BME280;49815;51.618;0.336;2023-02-18T10:49:54;101357.88;;;13.54;47.47
63663;BME280;49815;51.618;0.336;2023-02-18T10:52:04;101357.98;;;13.94;46.64
63663;BME280;49815;51.618;0.336;2023-02-18T10:56:58;101361.45;;;13.94;46.42
63663;BME280;49815;51.618;0.336;2023-02-18T10:59:20;101355.62;;;14.54;46.10
63663;BME280;49815;51.618;0.336;2023-02-18T11:01:44;101353.28;;;14.84;45.80
63663;BME280;49815;51.618;0.336;2023-02-18T11:04:14;101352.11;;;14.39;45.61
63663;BME280;49815;51.618;0.336;2023-02-18T11:06:39;101357.05;;;14.86;45.84
63663;BME280;49815;51.618;0.336;2023-02-18T11:08:59;101358.54;;;14.58;46.21
63663;BME280;49815;51.618;0.336;2023-02-18T11:11:27;101365.57;;;14.65;45.37
63663;BME280;49815;51.618;0.336;2023-02-18T11:13:53;101358.00;;;14.52;45.45
63663;BME280;49815;51.618;0.336;2023-02-18T11:16:15;101361.80;;;14.30;45.96
63663;BME280;49815;51.618;0.336;2023-02-18T11:18:42;101359.10;;;14.29;46.05
63663;BME280;49815;51.618;0.336;2023-02-18T11:23:31;101351.03;;;14.63;45.14
63663;BME280;49815;51.618;0.336;2023-02-18T11:25:59;101354.70;;;14.72;45.37
63663;BME280;49815;51.618;0.336;2023-02-18T11:28:30;101355.97;;;14.72;45.20
63663;BME280;49815;51.618;0.336;2023-02-18T11:30:52;101360.47;;;14.41;45.63
63663;BME280;49815;51.618;0.336;2023-02-18T11:33:16;101359.68;;;14.21;45.96
63663;BME280;49815;51.618;0.336;2023-02-18T11:35:37;101361.76;;;14.24;46.04
63663;BME280;49815;51.618;0.336;2023-02-18T11:38:14;101360.97;;;14.18;46.33
63663;BME280;49815;51.618;0.336;2023-02-18T11:40:31;101356.97;;;14.09;46.64
63663;BME280;49815;51.618;0.336;2023-02-18T11:43:02;101346.31;;;14.53;46.29
63663;BME280;49815;51.618;0.336;2023-02-18T11:45:27;101341.37;;;14.90;45.34
63663;BME280;49815;51.618;0.336;2023-02-18T11:47:49;101350.67;;;14.45;45.68
63663;BME280;49815;51.618;0.336;2023-02-18T11:50:17;101345.79;;;14.96;45.17
63663;BME280;49815;51.618;0.336;2023-02-18T11:52:36;101341.39;;;15.77;44.67
63663;BME280;49815;51.618;0.336;2023-02-18T11:55:02;101344.71;;;15.70;43.74
63663;BME280;49815;51.618;0.336;2023-02-18T11:57:26;101335.71;;;15.28;44.28
63663;BME280;49815;51.618;0.336;2023-02-18T11:59:51;101333.29;;;15.93;43.71
63663;BME280;49815;51.618;0.336;2023-02-18T12:02:24;101332.14;;;15.51;44.21
63663;BME280;49815;51.618;0.336;2023-02-18T12:04:44;101342.60;;;15.81;44.73
63663;BME280;49815;51.618;0.336;2023-02-18T12:07:15;101338.98;;;15.58;44.36
63663;BME280;49815;51.618;0.336;2023-02-18T12:09:35;101344.97;;;15.76;44.38
63663;BME280;49815;51.618;0.336;2023-02-18T12:11:59;101342.83;;;15.37;44.89
63663;BME280;49815;51.618;0.336;2023-02-18T12:14:23;101341.98;;;15.59;44.62
63663;BME280;49815;51.618;0.336;2023-02-18T12:17:01;101334.22;;;15.92;43.95
63663;BME280;49815;51.618;0.336;2023-02-18T12:19:33;101329.12;;;16.51;42.92
63663;BME280;49815;51.618;0.336;2023-02-18T12:21:48;101326.51;;;15.54;43.78
63663;BME280;49815;51.618;0.336;2023-02-18T12:24:12;101327.16;;;15.97;43.13
63663;BME280;49815;51.618;0.336;2023-02-18T12:26:31;101333.36;;;16.40;42.86
63663;BME280;49815;51.618;0.336;2023-02-18T12:29:05;101330.95;;;16.58;41.95
63663;BME280;49815;51.618;0.336;2023-02-18T12:31:33;101326.62;;;16.93;41.85
63663;BME280;49815;51.618;0.336;2023-02-18T12:33:53;101324.06;;;16.77;42.06
63663;BME280;49815;51.618;0.336;2023-02-18T12:36:15;101327.15;;;16.40;42.37
63663;BME280;49815;51.618;0.336;2023-02-18T12:38:45;101327.10;;;16.46;42.61
63663;BME280;49815;51.618;0.336;2023-02-18T12:41:12;101326.45;;;16.56;42.62
63663;BME280;49815;51.618;0.336;2023-02-18T12:43:32;101324.46;;;15.67;43.73
63663;BME280;49815;51.618;0.336;2023-02-18T12:46:03;101320.72;;;14.99;45.19
63663;BME280;49815;51.618;0.336;2023-02-18T12:48:35;101318.09;;;14.80;45.69